Time;durP1;ratioP1;P1;durP2;ratioP2;P2;SDS_P1;SDS_P2;PMS_P1;PMS_P2;Temp;Humidity;BMP_temperature;BMP_pressure;BME280_temperature;BME280_humidity;BME280_pressure;Samples;Min_cycle;Max_cycle;Signal;HPM_P1;HPM_P2
2024/01/27 00:01:31;;;;;;;8.90;3.35;;;6.60;74.00;;;;;;5013946;28;20033;-84
2024/01/27 00:03:57;;;;;;;8.80;2.90;;;6.50;74.10;;;;;;5013610;28;20467;-84
2024/01/27 00:06:23;;;;;;;5.03;3.28;;;6.50;74.20;;;;;;5013718;28;20110;-84
2024/01/27 00:08:48;;;;;;;9.30;3.22;;;6.50;74.30;;;;;;4995712;28;20483;-83
2024/01/27 00:11:14;;;;;;;7.25;3.63;;;6.50;74.30;;;;;;5013482;28;20030;-83
2024/01/27 00:13:40;;;;;;;6.72;3.47;;;6.50;74.60;;;;;;5013505;28;20487;-83
2024/01/27 00:16:06;;;;;;;6.93;3.70;;;6.40;74.60;;;;;;5013302;28;20018;-82
2024/01/27 00:18:31;;;;;;;6.75;3.60;;;6.50;74.70;;;;;;5013708;28;20109;-81
2024/01/27 00:20:56;;;;;;;7.45;3.85;;;6.50;74.80;;;;;;5014578;28;20472;-81
2024/01/27 00:23:22;;;;;;;7.20;3.55;;;6.50;74.80;;;;;;5013093;28;20026;-81
2024/01/27 00:25:47;;;;;;;9.65;4.38;;;6.40;74.80;;;;;;4995778;28;20024;-83
2024/01/27 00:28:13;;;;;;;8.63;3.90;;;6.40;74.90;;;;;;5013310;28;20038;-82
2024/01/27 00:30:38;;;;;;;8.35;3.53;;;6.40;75.00;;;;;;5013305;28;20536;-82
2024/01/27 00:33:04;;;;;;;7.72;3.97;;;6.40;75.20;;;;;;5013315;28;20038;-82
2024/01/27 00:35:30;;;;;;;7.65;4.15;;;6.40;75.50;;;;;;5013488;28;20084;-80
2024/01/27 00:37:56;;;;;;;8.07;4.20;;;6.40;75.60;;;;;;5013216;28;20030;-80
2024/01/27 00:40:22;;;;;;;5.78;3.50;;;6.50;75.70;;;;;;5013123;28;20022;-80
2024/01/27 00:42:48;;;;;;;7.70;3.33;;;6.40;75.80;;;;;;5013286;28;20100;-82
2024/01/27 00:45:13;;;;;;;8.15;3.45;;;6.40;75.40;;;;;;5013287;28;20018;-81
2024/01/27 00:47:39;;;;;;;7.43;3.22;;;6.40;75.50;;;;;;5013029;28;20080;-80
2024/01/27 00:50:05;;;;;;;5.63;2.83;;;6.40;75.50;;;;;;5015306;28;20105;-80
2024/01/27 00:52:31;;;;;;;7.18;3.45;;;6.30;75.70;;;;;;5022188;28;20076;-81
2024/01/27 00:54:57;;;;;;;8.13;3.28;;;6.20;75.80;;;;;;5014002;28;20022;-81
2024/01/27 00:57:22;;;;;;;7.72;3.00;;;6.20;76.20;;;;;;5013059;28;20026;-81
2024/01/27 00:59:48;;;;;;;7.22;2.80;;;6.20;76.40;;;;;;5012996;28;20049;-80
2024/01/27 01:02:13;;;;;;;6.85;2.88;;;6.20;76.40;;;;;;5013178;28;20026;-80
2024/01/27 01:04:39;;;;;;;4.72;2.45;;;6.20;76.40;;;;;;5012988;28;20080;-81
2024/01/27 01:07:04;;;;;;;4.90;2.85;;;6.20;76.50;;;;;;5012851;28;20076;-79
2024/01/27 01:09:30;;;;;;;5.50;2.97;;;6.20;76.60;;;;;;5012771;28;20044;-82
2024/01/27 01:11:55;;;;;;;7.35;3.00;;;6.10;76.70;;;;;;5012837;28;20026;-79
2024/01/27 01:14:21;;;;;;;6.10;3.15;;;6.10;76.80;;;;;;5012998;28;20026;-77
2024/01/27 01:16:46;;;;;;;6.95;2.88;;;6.10;76.90;;;;;;4995624;28;20113;-80
2024/01/27 01:19:12;;;;;;;5.20;2.85;;;6.20;76.80;;;;;;5012947;28;20038;-81
2024/01/27 01:21:37;;;;;;;3.67;2.40;;;6.10;76.70;;;;;;4994806;28;20159;-81
2024/01/27 01:24:03;;;;;;;6.95;3.05;;;6.10;76.80;;;;;;5012558;28;20474;-80
2024/01/27 01:26:29;;;;;;;5.82;2.33;;;6.00;76.90;;;;;;5012732;28;20060;-80
2024/01/27 01:28:54;;;;;;;5.40;2.72;;;6.00;78.00;;;;;;5012567;28;20037;-80
2024/01/27 01:31:20;;;;;;;6.40;2.70;;;6.00;77.50;;;;;;5012907;28;20045;-81
2024/01/27 01:33:45;;;;;;;7.10;2.65;;;5.90;77.30;;;;;;4995398;28;20022;-81
2024/01/27 01:36:11;;;;;;;9.13;2.10;;;5.90;77.20;;;;;;5016134;28;20463;-77
2024/01/27 01:38:36;;;;;;;7.80;2.60;;;5.90;77.20;;;;;;5016200;28;20030;-81
2024/01/27 01:41:02;;;;;;;5.22;2.40;;;5.90;76.80;;;;;;5016054;28;20028;-81
2024/01/27 01:43:27;;;;;;;6.72;2.90;;;5.90;76.80;;;;;;5016128;28;20429;-81
2024/01/27 01:45:53;;;;;;;4.00;1.90;;;5.90;77.20;;;;;;5015996;28;20088;-81
2024/01/27 01:48:20;;;;;;;4.47;2.45;;;5.80;77.00;;;;;;4998993;28;20084;-84
2024/01/27 01:50:46;;;;;;;4.18;2.13;;;5.70;77.20;;;;;;5017537;28;20124;-84
2024/01/27 01:53:12;;;;;;;3.45;2.25;;;5.70;77.50;;;;;;5016576;28;20029;-85
2024/01/27 01:55:38;;;;;;;5.05;2.22;;;5.60;77.60;;;;;;4999029;28;20030;-84
2024/01/27 01:58:04;;;;;;;3.97;2.03;;;5.50;78.00;;;;;;5016387;28;20029;-83
2024/01/27 02:00:30;;;;;;;5.75;2.15;;;5.50;78.40;;;;;;5016418;28;20156;-83
2024/01/27 02:02:55;;;;;;;5.47;1.83;;;5.40;78.50;;;;;;5016352;28;20073;-82
2024/01/27 02:05:21;;;;;;;5.78;2.22;;;5.40;78.40;;;;;;5016885;28;20054;-86
2024/01/27 02:07:47;;;;;;;5.93;2.08;;;5.30;78.50;;;;;;5016093;28;20433;-85
2024/01/27 02:10:17;;;;;;;5.03;2.05;;;5.30;78.60;;;;;;5016808;28;20057;-82
2024/01/27 02:12:44;;;;;;;6.40;2.13;;;5.30;78.50;;;;;;5016559;28;20057;-84
2024/01/27 02:15:11;;;;;;;3.45;1.67;;;5.20;78.60;;;;;;5016331;28;20037;-83
2024/01/27 02:17:37;;;;;;;5.57;1.90;;;5.10;78.70;;;;;;5016300;28;20029;-81
2024/01/27 02:20:03;;;;;;;5.47;2.20;;;5.00;78.70;;;;;;5015704;28;20053;-80
2024/01/27 02:22:29;;;;;;;5.40;1.90;;;4.90;78.80;;;;;;5016126;28;20026;-85
2024/01/27 02:24:54;;;;;;;6.00;2.10;;;4.90;79.00;;;;;;5016172;28;20037;-84
2024/01/27 02:27:19;;;;;;;5.20;2.65;;;4.80;79.10;;;;;;5015740;28;20026;-84
2024/01/27 02:29:45;;;;;;;5.75;2.55;;;4.80;79.20;;;;;;5015405;28;20084;-83
2024/01/27 02:32:10;;;;;;;4.55;2.38;;;4.80;79.10;;;;;;5015407;28;20068;-83
2024/01/27 02:34:36;;;;;;;4.25;2.50;;;4.70;79.20;;;;;;5016010;28;20026;-76
2024/01/27 02:37:02;;;;;;;6.07;2.70;;;4.70;79.30;;;;;;4997524;28;20025;-77
2024/01/27 02:39:27;;;;;;;6.70;2.92;;;4.60;79.30;;;;;;5015129;28;20356;-75
2024/01/27 02:41:54;;;;;;;4.38;2.58;;;4.50;79.40;;;;;;5015057;28;20033;-75
2024/01/27 02:44:19;;;;;;;8.88;2.50;;;4.50;79.30;;;;;;5014951;28;20024;-74
2024/01/27 02:46:45;;;;;;;6.93;2.83;;;4.40;79.20;;;;;;5013647;28;20034;-79
2024/01/27 02:49:10;;;;;;;6.43;2.70;;;4.40;79.40;;;;;;5014755;28;20112;-75
2024/01/27 02:51:36;;;;;;;6.43;2.58;;;4.30;79.40;;;;;;5014879;28;20069;-84
2024/01/27 02:54:01;;;;;;;11.23;3.85;;;4.30;79.30;;;;;;5015123;28;20048;-82
2024/01/27 02:56:27;;;;;;;15.35;5.35;;;4.30;80.20;;;;;;5015089;28;20057;-82
2024/01/27 02:58:53;;;;;;;14.68;5.55;;;4.20;79.40;;;;;;5015699;28;20014;-84
2024/01/27 03:01:18;;;;;;;13.68;4.97;;;4.10;79.40;;;;;;5016057;28;20105;-75
2024/01/27 03:03:44;;;;;;;9.57;4.07;;;4.10;79.40;;;;;;5014690;28;20018;-77
2024/01/27 03:06:09;;;;;;;10.60;3.83;;;4.10;79.30;;;;;;5014599;28;20037;-76
2024/01/27 03:08:35;;;;;;;9.32;3.40;;;4.10;79.20;;;;;;5014398;28;20116;-75
2024/01/27 03:11:00;;;;;;;6.65;2.65;;;4.10;79.20;;;;;;5014506;28;20442;-76
2024/01/27 03:13:26;;;;;;;5.07;2.42;;;4.00;79.10;;;;;;4996594;28;20108;-75
2024/01/27 03:15:52;;;;;;;9.13;3.72;;;4.00;79.20;;;;;;5014289;28;20022;-75
2024/01/27 03:18:18;;;;;;;9.50;4.32;;;4.00;79.10;;;;;;5014254;28;20024;-75
2024/01/27 03:20:43;;;;;;;8.40;3.83;;;4.00;79.00;;;;;;5014202;28;20026;-75
2024/01/27 03:23:09;;;;;;;10.70;4.00;;;3.90;78.80;;;;;;5014129;28;20034;-78
2024/01/27 03:25:35;;;;;;;13.18;5.45;;;3.90;78.80;;;;;;5014018;28;20030;-77
2024/01/27 03:28:00;;;;;;;8.40;4.35;;;3.80;79.00;;;;;;5013923;28;20057;-75
2024/01/27 03:30:26;;;;;;;7.65;3.95;;;3.80;79.20;;;;;;5014212;28;20026;-82
2024/01/27 03:32:52;;;;;;;9.27;2.67;;;3.70;79.50;;;;;;5014284;28;20386;-83
2024/01/27 03:35:17;;;;;;;7.97;2.70;;;3.60;79.60;;;;;;5014613;28;20084;-83
2024/01/27 03:37:44;;;;;;;5.82;2.67;;;3.50;80.20;;;;;;5016727;28;20026;-81
2024/01/27 03:40:10;;;;;;;11.35;2.53;;;3.50;80.30;;;;;;5024826;28;20022;-82
2024/01/27 03:42:36;;;;;;;5.97;2.83;;;3.40;80.20;;;;;;5022438;28;20030;-81
2024/01/27 03:45:01;;;;;;;5.28;2.72;;;3.40;80.30;;;;;;5016074;28;20083;-84
2024/01/27 03:47:27;;;;;;;9.30;2.75;;;3.40;80.30;;;;;;4996738;28;20030;-83
2024/01/27 03:49:52;;;;;;;9.85;3.10;;;3.30;80.20;;;;;;5015127;28;20033;-84
2024/01/27 03:52:18;;;;;;;9.00;3.10;;;3.30;80.70;;;;;;5016630;28;20034;-83
2024/01/27 03:54:43;;;;;;;12.73;3.60;;;3.20;80.90;;;;;;5013677;28;20044;-83
2024/01/27 03:57:09;;;;;;;10.85;3.40;;;3.10;81.20;;;;;;5013253;28;20032;-83
2024/01/27 03:59:34;;;;;;;11.25;4.10;;;3.10;81.10;;;;;;5013707;28;20032;-83
2024/01/27 04:02:00;;;;;;;13.60;4.15;;;3.10;81.10;;;;;;5013723;28;20386;-81
2024/01/27 04:04:25;;;;;;;11.70;4.45;;;3.10;81.20;;;;;;5013609;28;20076;-82
2024/01/27 04:06:51;;;;;;;10.27;4.00;;;3.10;81.00;;;;;;5013700;28;20367;-81
2024/01/27 04:09:16;;;;;;;6.53;3.30;;;3.10;80.90;;;;;;5013270;28;20037;-82
2024/01/27 04:11:42;;;;;;;9.50;3.72;;;3.20;81.70;;;;;;5013240;28;20026;-82
2024/01/27 04:14:07;;;;;;;8.27;3.67;;;3.20;80.90;;;;;;5013420;28;20030;-82
2024/01/27 04:16:33;;;;;;;7.53;4.15;;;3.20;80.60;;;;;;5013324;28;20250;-83
2024/01/27 04:18:59;;;;;;;8.35;3.60;;;3.20;80.30;;;;;;5013305;28;20030;-83
2024/01/27 04:21:24;;;;;;;8.60;3.65;;;3.20;80.10;;;;;;5013375;28;20025;-83
2024/01/27 04:23:49;;;;;;;6.53;2.97;;;3.10;80.20;;;;;;5013413;28;20030;-83
2024/01/27 04:26:15;;;;;;;10.00;3.20;;;3.10;80.40;;;;;;5013597;28;20105;-82
2024/01/27 04:28:41;;;;;;;8.10;2.95;;;3.10;80.40;;;;;;5013548;28;20037;-83
2024/01/27 04:31:06;;;;;;;6.55;3.08;;;3.10;80.80;;;;;;5013621;28;20109;-84
2024/01/27 04:33:32;;;;;;;6.68;3.25;;;3.10;80.90;;;;;;5013258;28;20030;-83
2024/01/27 04:35:58;;;;;;;9.68;3.65;;;3.10;80.70;;;;;;4995769;28;20021;-83
2024/01/27 04:38:24;;;;;;;7.65;3.00;;;3.20;80.50;;;;;;5013276;28;20386;-83
2024/01/27 04:40:50;;;;;;;8.20;3.10;;;3.20;80.20;;;;;;5019036;28;20034;-81
2024/01/27 04:43:22;;;;;;;7.93;2.67;;;3.10;79.80;;;;;;5013524;28;20401;-83
2024/01/27 04:45:49;;;;;;;7.60;3.60;;;3.10;79.90;;;;;;5013432;28;20533;-83
2024/01/27 04:48:14;;;;;;;7.88;3.30;;;3.00;80.00;;;;;;5013357;28;20073;-82
2024/01/27 04:50:40;;;;;;;8.13;3.35;;;3.00;80.00;;;;;;5013221;28;20078;-83
2024/01/27 04:53:06;;;;;;;6.72;3.03;;;3.00;80.10;;;;;;5013095;28;20026;-83
2024/01/27 04:55:32;;;;;;;7.50;2.90;;;3.00;80.00;;;;;;5013295;28;20026;-84
2024/01/27 04:57:58;;;;;;;5.90;2.60;;;3.00;79.90;;;;;;5013016;28;20097;-82
2024/01/27 05:00:26;;;;;;;5.68;2.60;;;3.00;79.70;;;;;;5012878;28;20379;-83
2024/01/27 05:02:52;;;;;;;5.95;3.47;;;3.00;79.60;;;;;;5013068;28;20036;-83
2024/01/27 05:05:17;;;;;;;5.80;3.03;;;3.00;79.60;;;;;;5012982;28;20018;-84
2024/01/27 05:07:43;;;;;;;6.45;3.03;;;3.00;79.50;;;;;;5012928;28;20097;-82
2024/01/27 05:10:12;;;;;;;5.75;2.92;;;2.90;79.30;;;;;;5015727;28;20029;-83
2024/01/27 05:12:37;;;;;;;6.88;3.25;;;2.90;79.30;;;;;;5016687;28;20072;-82
2024/01/27 05:15:03;;;;;;;6.20;2.75;;;2.80;79.20;;;;;;5016583;28;20029;-82
2024/01/27 05:17:29;;;;;;;5.88;2.70;;;2.80;78.90;;;;;;5016667;28;20032;-83
2024/01/27 05:19:54;;;;;;;6.07;2.95;;;2.70;79.00;;;;;;5017021;28;20112;-82
2024/01/27 05:22:20;;;;;;;10.80;3.22;;;2.60;79.10;;;;;;5016525;28;20382;-82
2024/01/27 05:24:45;;;;;;;6.57;3.00;;;2.60;79.30;;;;;;5016730;28;20320;-81
2024/01/27 05:27:11;;;;;;;10.20;3.60;;;2.60;79.40;;;;;;5016363;28;20531;-83
2024/01/27 05:29:37;;;;;;;5.65;2.97;;;2.60;79.50;;;;;;5016283;28;20148;-79
2024/01/27 05:32:03;;;;;;;6.43;2.95;;;2.50;79.40;;;;;;5016339;28;20088;-81
2024/01/27 05:34:28;;;;;;;7.45;3.72;;;2.50;79.40;;;;;;4998608;28;20029;-82
2024/01/27 05:36:54;;;;;;;10.90;4.20;;;2.50;79.50;;;;;;5016607;28;20471;-82
2024/01/27 05:39:20;;;;;;;7.18;3.85;;;2.40;79.60;;;;;;5016346;28;20029;-84
2024/01/27 05:41:45;;;;;;;12.27;4.95;;;2.40;79.70;;;;;;5016263;28;20105;-80
2024/01/27 05:44:11;;;;;;;7.40;4.75;;;2.40;79.90;;;;;;4998607;28;20037;-83
2024/01/27 05:46:36;;;;;;;10.40;4.28;;;2.40;79.90;;;;;;5016331;28;20057;-83
2024/01/27 05:49:03;;;;;;;8.10;3.97;;;2.40;79.80;;;;;;5016242;28;20034;-83
2024/01/27 05:51:30;;;;;;;8.55;5.03;;;2.40;79.80;;;;;;5015962;28;20042;-84
2024/01/27 05:53:55;;;;;;;7.20;4.15;;;2.30;79.90;;;;;;5016536;28;20034;-82
2024/01/27 05:56:21;;;;;;;9.05;4.40;;;2.30;80.00;;;;;;5016603;28;20080;-83
2024/01/27 05:58:48;;;;;;;11.70;4.00;;;2.30;80.10;;;;;;5016212;28;20033;-83
2024/01/27 06:01:14;;;;;;;8.10;4.07;;;2.30;80.40;;;;;;5016052;28;20028;-84
2024/01/27 06:03:43;;;;;;;7.22;3.65;;;2.20;80.40;;;;;;4998549;28;20390;-82
2024/01/27 06:06:09;;;;;;;10.23;4.30;;;2.20;81.00;;;;;;5016101;28;20475;-84
2024/01/27 06:08:34;;;;;;;8.70;4.00;;;2.10;81.20;;;;;;5016229;28;20038;-81
2024/01/27 06:11:00;;;;;;;8.55;3.97;;;2.20;81.50;;;;;;5016543;28;20029;-83
2024/01/27 06:13:26;;;;;;;9.23;4.35;;;2.20;81.40;;;;;;5016569;28;20058;-83
2024/01/27 06:15:51;;;;;;;11.35;5.13;;;2.20;81.20;;;;;;5016217;28;20421;-84
2024/01/27 06:18:17;;;;;;;9.52;5.32;;;2.10;81.10;;;;;;5016436;28;20486;-84
2024/01/27 06:20:43;;;;;;;8.90;5.03;;;2.00;81.40;;;;;;5016139;28;20049;-82
2024/01/27 06:23:09;;;;;;;9.25;4.65;;;2.00;81.90;;;;;;5016153;28;20088;-82
2024/01/27 06:25:34;;;;;;;14.27;4.95;;;2.00;81.90;;;;;;4998493;28;20061;-85
2024/01/27 06:28:00;;;;;;;11.45;4.53;;;2.00;81.90;;;;;;5016399;28;20101;-84
2024/01/27 06:30:26;;;;;;;13.73;4.65;;;1.90;82.40;;;;;;5016774;28;20085;-82
2024/01/27 06:32:51;;;;;;;10.07;4.80;;;1.80;82.40;;;;;;5018071;28;20052;-83
2024/01/27 06:35:17;;;;;;;14.82;5.93;;;1.80;82.30;;;;;;5021143;28;20108;-84
2024/01/27 06:37:43;;;;;;;11.50;5.28;;;1.80;82.50;;;;;;5005059;28;20113;-83
2024/01/27 06:40:09;;;;;;;10.85;5.40;;;1.70;82.50;;;;;;5017668;28;20045;-83
2024/01/27 06:42:35;;;;;;;9.70;5.40;;;1.80;82.40;;;;;;5016771;28;20042;-84
2024/01/27 06:45:01;;;;;;;13.05;6.03;;;1.80;82.60;;;;;;5016260;28;20208;-85
2024/01/27 06:47:26;;;;;;;15.40;6.60;;;1.80;82.40;;;;;;5017055;28;20053;-82
2024/01/27 06:49:52;;;;;;;11.00;5.82;;;1.90;82.30;;;;;;5025087;28;20041;-83
2024/01/27 06:52:18;;;;;;;10.65;5.93;;;1.90;82.30;;;;;;5016535;28;20152;-83
2024/01/27 06:54:43;;;;;;;8.43;4.70;;;1.90;82.20;;;;;;5000911;28;20030;-82
2024/01/27 06:57:19;;;;;;;9.13;6.18;;;2.00;82.10;;;;;;5016502;28;20022;-83
2024/01/27 06:59:44;;;;;;;6.65;4.63;;;2.10;82.10;;;;;;5016627;28;20018;-81
2024/01/27 07:02:13;;;;;;;12.27;5.80;;;2.10;81.70;;;;;;5015332;28;20113;-82
2024/01/27 07:04:39;;;;;;;11.77;5.53;;;2.10;81.60;;;;;;5014767;28;20022;-84
2024/01/27 07:07:05;;;;;;;12.20;5.32;;;2.10;81.40;;;;;;4997825;28;20390;-86
2024/01/27 07:09:30;;;;;;;10.50;6.03;;;2.20;81.20;;;;;;5020610;28;20038;-86
2024/01/27 07:11:56;;;;;;;10.38;5.82;;;2.20;81.00;;;;;;5037077;28;20097;-85
2024/01/27 07:14:21;;;;;;;15.18;6.72;;;2.30;80.90;;;;;;5028211;28;20037;-86
2024/01/27 07:16:47;;;;;;;18.27;9.20;;;2.30;80.60;;;;;;5018178;28;20108;-85
2024/01/27 07:19:13;;;;;;;173.38;74.75;;;2.30;80.20;;;;;;5017176;28;20025;-83
2024/01/27 07:21:39;;;;;;;110.40;63.60;;;2.20;80.20;;;;;;5016282;28;20101;-84
2024/01/27 07:24:04;;;;;;;50.15;34.33;;;2.20;80.50;;;;;;5015925;28;20049;-84
2024/01/27 07:26:31;;;;;;;18.92;9.32;;;2.30;80.50;;;;;;4997694;28;20030;-84
2024/01/27 07:28:57;;;;;;;15.75;7.63;;;2.20;79.80;;;;;;5015438;28;20034;-83
2024/01/27 07:31:24;;;;;;;10.68;7.18;;;2.10;80.00;;;;;;5015466;28;20028;-83
2024/01/27 07:33:49;;;;;;;12.38;7.15;;;2.00;80.30;;;;;;4998001;28;20064;-83
2024/01/27 07:36:16;;;;;;;13.57;7.05;;;2.00;80.20;;;;;;5015970;28;20410;-86
2024/01/27 07:38:41;;;;;;;19.23;8.00;;;1.90;80.50;;;;;;5015290;28;20026;-85
2024/01/27 07:41:07;;;;;;;16.17;7.40;;;1.90;80.70;;;;;;5014921;28;20095;-83
2024/01/27 07:43:32;;;;;;;19.15;8.85;;;2.00;80.70;;;;;;5015267;28;20025;-84
2024/01/27 07:45:58;;;;;;;14.95;7.32;;;2.00;80.60;;;;;;4997730;28;20029;-82
2024/01/27 07:48:23;;;;;;;11.40;6.47;;;2.00;81.00;;;;;;5015561;28;20030;-85
2024/01/27 07:50:50;;;;;;;11.68;6.13;;;2.10;80.80;;;;;;5016159;28;20058;-82
2024/01/27 07:53:17;;;;;;;17.52;7.18;;;2.10;80.50;;;;;;5013919;28;20036;-77
2024/01/27 07:55:42;;;;;;;13.77;7.07;;;2.10;81.50;;;;;;5014507;28;20026;-87
2024/01/27 07:58:08;;;;;;;20.35;8.88;;;2.50;86.70;;;;;;5000565;28;20117;-88
2024/01/27 08:00:33;;;;;;;14.65;7.32;;;2.80;84.50;;;;;;4999019;28;20049;-81
2024/01/27 08:02:59;;;;;;;16.27;8.73;;;3.00;83.40;;;;;;4996588;28;20080;-83
2024/01/27 08:05:25;;;;;;;14.90;8.05;;;3.30;80.20;;;;;;4998139;28;20034;-91
2024/01/27 08:07:50;;;;;;;12.82;7.68;;;3.60;78.70;;;;;;5016299;28;20033;-85
2024/01/27 08:10:16;;;;;;;14.15;6.75;;;4.10;77.70;;;;;;5006629;28;20033;-82
2024/01/27 08:12:42;;;;;;;14.88;7.57;;;4.20;74.60;;;;;;5034567;28;20025;-91
2024/01/27 08:15:08;;;;;;;15.90;7.65;;;4.50;74.40;;;;;;5004564;28;20045;-91
2024/01/27 08:17:34;;;;;;;17.08;10.10;;;4.70;73.40;;;;;;5005316;28;20053;-90
2024/01/27 08:20:00;;;;;;;20.52;11.32;;;4.60;71.20;;;;;;5000946;28;20053;-85
2024/01/27 08:22:25;;;;;;;21.95;13.32;;;4.70;70.40;;;;;;5014377;28;20033;-83
2024/01/27 08:24:51;;;;;;;24.80;13.52;;;4.50;70.10;;;;;;5015386;28;20030;-86
2024/01/27 08:27:16;;;;;;;34.80;20.42;;;4.40;70.70;;;;;;5015421;28;20029;-83
2024/01/27 08:29:42;;;;;;;23.00;16.30;;;4.30;71.20;;;;;;5015900;28;20030;-80
2024/01/27 08:32:07;;;;;;;19.65;12.23;;;4.30;71.60;;;;;;5016523;28;20390;-82
2024/01/27 08:34:33;;;;;;;16.80;10.00;;;4.30;72.00;;;;;;5015096;28;20382;-85
2024/01/27 08:37:01;;;;;;;16.38;9.00;;;4.20;71.90;;;;;;5014397;28;20033;-85
2024/01/27 08:39:27;;;;;;;14.27;8.82;;;4.30;72.00;;;;;;5014501;28;20026;-84
2024/01/27 08:41:52;;;;;;;13.80;9.05;;;4.30;71.60;;;;;;5014296;28;20374;-83
2024/01/27 08:44:18;;;;;;;16.45;8.77;;;4.40;71.70;;;;;;5017199;28;20110;-86
2024/01/27 08:46:43;;;;;;;14.05;7.85;;;4.50;71.60;;;;;;5018090;28;20080;-85
2024/01/27 08:49:18;;;;;;;16.75;7.95;;;4.60;71.50;;;;;;5019248;28;20038;-88
2024/01/27 08:51:44;;;;;;;12.15;6.90;;;4.70;70.50;;;;;;5024266;28;20375;-86
2024/01/27 08:54:09;;;;;;;11.95;6.55;;;4.70;70.30;;;;;;5018469;28;20084;-86
2024/01/27 08:56:39;;;;;;;12.50;6.68;;;4.80;70.20;;;;;;5018621;28;20099;-85
2024/01/27 08:59:05;;;;;;;13.93;6.75;;;4.80;69.60;;;;;;5020839;28;20014;-85
2024/01/27 09:01:30;;;;;;;13.07;8.27;;;4.90;69.90;;;;;;5019819;28;20502;-85
2024/01/27 09:03:56;;;;;;;11.55;7.43;;;4.90;69.50;;;;;;5023954;28;20037;-84
2024/01/27 09:06:21;;;;;;;14.10;7.82;;;5.00;70.00;;;;;;5017935;28;20026;-85
2024/01/27 09:08:47;;;;;;;18.15;10.48;;;5.20;69.80;;;;;;5017369;28;20045;-84
2024/01/27 09:11:12;;;;;;;15.43;9.13;;;5.30;69.00;;;;;;5017765;28;20017;-85
2024/01/27 09:13:38;;;;;;;14.57;8.77;;;5.30;69.10;;;;;;4999633;28;20022;-86
2024/01/27 09:16:04;;;;;;;12.98;8.45;;;5.50;68.80;;;;;;5017991;28;20054;-85
2024/01/27 09:18:29;;;;;;;12.02;7.57;;;5.70;68.50;;;;;;5019155;28;20041;-82
2024/01/27 09:20:55;;;;;;;16.13;8.73;;;5.90;67.70;;;;;;5017503;28;20037;-85
2024/01/27 09:23:20;;;;;;;12.30;7.60;;;6.20;67.10;;;;;;5017731;28;20034;-81
2024/01/27 09:25:46;;;;;;;13.75;9.27;;;6.50;66.30;;;;;;5017574;28;20113;-84
2024/01/27 09:28:12;;;;;;;12.70;7.65;;;6.80;65.10;;;;;;5021582;28;20034;-85
2024/01/27 09:30:37;;;;;;;14.50;8.77;;;7.00;63.70;;;;;;5024163;28;20084;-85
2024/01/27 09:33:03;;;;;;;16.67;9.68;;;7.20;62.50;;;;;;5032458;28;20037;-80
2024/01/27 09:35:29;;;;;;;16.02;9.70;;;7.40;61.80;;;;;;5032248;28;20110;-83
2024/01/27 09:37:54;;;;;;;18.25;9.32;;;7.40;59.90;;;;;;5025233;28;20022;-84
2024/01/27 09:40:20;;;;;;;12.75;8.32;;;7.50;60.00;;;;;;5019473;28;20060;-83
2024/01/27 09:42:52;;;;;;;11.73;6.72;;;7.50;59.70;;;;;;5018375;28;20390;-85
2024/01/27 09:45:20;;;;;;;12.43;6.65;;;7.60;59.30;;;;;;5018569;28;20030;-85
2024/01/27 09:47:46;;;;;;;11.13;5.88;;;7.50;58.90;;;;;;5016673;28;20108;-85
2024/01/27 09:50:12;;;;;;;11.52;6.25;;;7.60;59.10;;;;;;5017802;28;20153;-86
2024/01/27 09:52:38;;;;;;;13.52;6.63;;;7.70;58.90;;;;;;5017792;28;20018;-85
2024/01/27 09:55:03;;;;;;;9.85;5.82;;;7.90;58.70;;;;;;5016924;28;20071;-85
2024/01/27 09:57:29;;;;;;;9.05;5.78;;;8.00;57.60;;;;;;5017894;28;20097;-86
2024/01/27 09:59:57;;;;;;;11.40;6.32;;;8.20;58.20;;;;;;5017724;28;20316;-85
2024/01/27 10:02:24;;;;;;;12.45;5.82;;;8.40;56.90;;;;;;5017134;28;20462;-85
2024/01/27 10:04:51;;;;;;;9.75;5.90;;;8.60;56.90;;;;;;5017557;28;20034;-85
2024/01/27 10:07:16;;;;;;;12.18;5.55;;;8.80;55.70;;;;;;5017825;28;20018;-85
2024/01/27 10:09:43;;;;;;;14.25;6.65;;;8.60;55.20;;;;;;5017646;28;20034;-86
2024/01/27 10:12:10;;;;;;;11.50;6.10;;;8.70;55.30;;;;;;5000361;28;20030;-86
2024/01/27 10:14:42;;;;;;;11.10;5.90;;;9.00;55.80;;;;;;5017016;28;20085;-85
2024/01/27 10:17:11;;;;;;;12.98;5.80;;;9.30;55.60;;;;;;5015288;28;20014;-84
2024/01/27 10:19:37;;;;;;;10.63;5.85;;;9.40;53.90;;;;;;5016724;28;20113;-83
2024/01/27 10:22:03;;;;;;;9.35;5.85;;;9.40;53.00;;;;;;5016098;28;20072;-84
2024/01/27 10:24:31;;;;;;;8.63;5.45;;;9.60;52.80;;;;;;5016624;28;20056;-84
2024/01/27 10:27:03;;;;;;;14.10;6.05;;;9.80;51.80;;;;;;5016876;28;20025;-84
2024/01/27 10:29:32;;;;;;;10.02;5.55;;;10.10;51.10;;;;;;5017398;28;20115;-84
2024/01/27 10:32:09;;;;;;;11.63;5.57;;;10.30;50.30;;;;;;4999762;28;20379;-84
2024/01/27 10:34:34;;;;;;;9.90;5.20;;;10.50;49.30;;;;;;5014682;28;20109;-85
2024/01/27 10:37:00;;;;;;;10.10;5.35;;;10.80;49.50;;;;;;5015897;28;20467;-83
2024/01/27 10:39:25;;;;;;;11.10;6.28;;;11.00;48.30;;;;;;5016668;28;20026;-85
2024/01/27 10:41:51;;;;;;;13.80;6.75;;;11.20;47.10;;;;;;5016256;28;20080;-84
2024/01/27 10:44:19;;;;;;;9.43;5.65;;;11.20;46.20;;;;;;5016018;28;20474;-84
2024/01/27 10:46:46;;;;;;;9.18;5.50;;;11.40;46.60;;;;;;5016173;28;20034;-81
2024/01/27 10:49:14;;;;;;;15.55;6.13;;;11.60;45.60;;;;;;5016429;28;20034;-85
2024/01/27 10:51:48;;;;;;;11.73;5.57;;;11.70;45.20;;;;;;5019671;28;20096;-83
2024/01/27 10:54:21;;;;;;;11.23;6.47;;;11.90;45.10;;;;;;5018143;28;20117;-85
2024/01/27 10:56:48;;;;;;;10.35;5.63;;;12.10;43.70;;;;;;5016250;28;20050;-84
2024/01/27 10:59:15;;;;;;;8.00;5.10;;;12.00;43.60;;;;;;5016338;28;20061;-85
2024/01/27 11:01:42;;;;;;;10.18;5.40;;;12.20;42.50;;;;;;5017024;28;20025;-80
2024/01/27 11:04:10;;;;;;;11.27;6.35;;;12.50;42.60;;;;;;5016010;28;20053;-84
2024/01/27 11:06:37;;;;;;;10.85;5.70;;;12.70;42.50;;;;;;5014097;28;20037;-82
2024/01/27 11:09:04;;;;;;;10.55;6.10;;;12.90;42.60;;;;;;5016974;28;20030;-86
2024/01/27 11:11:30;;;;;;;10.20;5.65;;;13.00;42.20;;;;;;5016767;28;20371;-86
2024/01/27 11:13:56;;;;;;;12.48;6.90;;;13.00;42.60;;;;;;5017339;28;20501;-88
2024/01/27 11:16:23;;;;;;;11.55;6.45;;;13.00;43.00;;;;;;5018070;28;20018;-86
2024/01/27 11:18:49;;;;;;;10.80;6.53;;;13.10;43.70;;;;;;5017412;28;20033;-86
2024/01/27 11:21:17;;;;;;;11.30;7.32;;;13.20;43.60;;;;;;5023374;28;20049;-83
2024/01/27 11:23:44;;;;;;;13.43;6.70;;;13.40;43.90;;;;;;5023798;28;20033;-87
2024/01/27 11:26:12;;;;;;;9.65;5.53;;;13.30;44.70;;;;;;5019978;28;20018;-85
2024/01/27 11:28:38;;;;;;;13.25;6.65;;;12.90;46.00;;;;;;5017133;28;20069;-85
2024/01/27 11:31:05;;;;;;;13.35;8.60;;;13.00;46.60;;;;;;5015964;28;20128;-85
2024/01/27 11:33:31;;;;;;;14.55;9.10;;;13.30;46.50;;;;;;5014487;28;20030;-87
2024/01/27 11:36:02;;;;;;;13.68;9.50;;;13.30;45.30;;;;;;5017263;28;20026;-86
2024/01/27 11:38:28;;;;;;;14.55;9.32;;;13.40;45.50;;;;;;5016519;28;20100;-86
2024/01/27 11:40:53;;;;;;;13.57;8.95;;;13.40;45.50;;;;;;5016084;28;20061;-86
2024/01/27 11:43:20;;;;;;;12.95;8.45;;;13.40;44.80;;;;;;5015922;28;20028;-85
2024/01/27 11:45:58;;;;;;;11.02;7.68;;;13.60;44.70;;;;;;5015163;28;20100;-86
2024/01/27 11:48:24;;;;;;;10.90;7.03;;;13.60;43.40;;;;;;5014845;28;20068;-84
2024/01/27 11:51:03;;;;;;;10.98;6.10;;;13.60;43.80;;;;;;5014148;28;20038;-85
2024/01/27 11:53:28;;;;;;;8.75;5.60;;;13.80;43.40;;;;;;5013178;28;20375;-86
2024/01/27 11:55:55;;;;;;;10.32;4.82;;;13.70;43.40;;;;;;5014167;28;20049;-84
2024/01/27 11:58:21;;;;;;;10.43;5.10;;;13.90;42.90;;;;;;4997161;28;20103;-87
2024/01/27 12:00:47;;;;;;;9.57;5.35;;;14.20;42.60;;;;;;5015356;28;20025;-85
2024/01/27 12:03:13;;;;;;;8.48;5.00;;;14.40;41.70;;;;;;5014149;28;20479;-86
2024/01/27 12:05:38;;;;;;;9.50;5.32;;;14.40;40.70;;;;;;5014251;28;20021;-86
2024/01/27 12:08:07;;;;;;;9.23;4.57;;;14.50;41.10;;;;;;5013949;28;20038;-85
2024/01/27 12:10:32;;;;;;;8.18;4.90;;;14.70;39.90;;;;;;5013842;28;20034;-81
2024/01/27 12:12:58;;;;;;;8.57;5.18;;;15.20;38.80;;;;;;5013393;28;20025;-81
2024/01/27 12:15:24;;;;;;;10.02;4.63;;;15.60;37.90;;;;;;5013532;28;20081;-80
2024/01/27 12:17:51;;;;;;;7.50;4.40;;;15.90;36.80;;;;;;5013193;28;20033;-85
2024/01/27 12:20:16;;;;;;;8.75;5.07;;;16.20;35.70;;;;;;5014146;28;20513;-83
2024/01/27 12:22:42;;;;;;;8.75;5.10;;;15.60;37.60;;;;;;5013391;28;20034;-82
2024/01/27 12:25:10;;;;;;;6.60;4.32;;;15.90;36.10;;;;;;5014002;28;20056;-85
2024/01/27 12:27:35;;;;;;;7.90;4.50;;;16.30;35.80;;;;;;5013199;28;20033;-78
2024/01/27 12:30:02;;;;;;;9.18;4.88;;;16.90;34.30;;;;;;5013173;28;20041;-80
2024/01/27 12:32:27;;;;;;;9.95;4.47;;;17.50;32.60;;;;;;5026104;28;20467;-85
2024/01/27 12:34:53;;;;;;;5.70;4.30;;;17.40;31.90;;;;;;5022227;28;20030;-83
2024/01/27 12:37:21;;;;;;;11.30;5.57;;;17.90;32.70;;;;;;5018595;28;20018;-83
2024/01/27 12:39:50;;;;;;;8.90;4.80;;;18.40;31.40;;;;;;5018662;28;20026;-83
2024/01/27 12:42:16;;;;;;;8.60;4.95;;;18.70;30.90;;;;;;5017546;28;20088;-84
2024/01/27 12:44:42;;;;;;;9.77;6.15;;;19.60;29.50;;;;;;5021102;28;20105;-82